Time;durP1;ratioP1;P1;durP2;ratioP2;P2;SDS_P1;SDS_P2;PMS_P1;PMS_P2;Temp;Humidity;BMP_temperature;BMP_pressure;BME280_temperature;BME280_humidity;BME280_pressure;Samples;Min_cycle;Max_cycle;Signal;HPM_P1;HPM_P2
2023/12/05 00:01:32;;;;;;;;;;;28.30;94.90;;;;;;4957316;28;19918;-69
2023/12/05 00:04:01;;;;;;;;;;;28.50;96.20;;;;;;4971129;28;19920;-69
2023/12/05 00:06:28;;;;;;;;;;;28.60;96.20;;;;;;4967167;28;20014;-70
2023/12/05 00:08:54;;;;;;;;;;;28.70;96.90;;;;;;4957325;28;20367;-69
2023/12/05 00:11:21;;;;;;;;;;;28.80;96.80;;;;;;4951589;28;19911;-69
2023/12/05 00:13:48;;;;;;;;;;;28.90;97.00;;;;;;4958174;28;19924;-71
2023/12/05 00:16:14;;;;;;;;;;;29.00;97.20;;;;;;4971308;28;19914;-70
2023/12/05 00:18:44;;;;;;;;;;;29.00;97.10;;;;;;4962534;28;19918;-69
2023/12/05 00:21:10;;;;;;;;;;;29.10;97.40;;;;;;4971052;28;19976;-70
2023/12/05 00:23:37;;;;;;;;;;;29.10;97.30;;;;;;4971470;28;19910;-68
2023/12/05 00:26:04;;;;;;;;;;;29.10;97.40;;;;;;4971066;28;19917;-70
2023/12/05 00:28:31;;;;;;;;;;;29.00;97.90;;;;;;4970437;28;19960;-69
2023/12/05 00:30:58;;;;;;;;;;;29.00;98.10;;;;;;4970977;28;20260;-68
2023/12/05 00:33:24;;;;;;;;;;;28.90;98.00;;;;;;4971013;28;19910;-69
2023/12/05 00:35:51;;;;;;;;;;;28.90;97.40;;;;;;4969392;28;19993;-69
2023/12/05 00:38:18;;;;;;;;;;;29.10;98.20;;;;;;4984038;28;19924;-68
2023/12/05 00:40:44;;;;;;;;;;;29.20;98.20;;;;;;5072398;28;19935;-69
2023/12/05 00:43:11;;;;;;;;;;;29.40;98.00;;;;;;5071851;28;20018;-68
2023/12/05 00:45:37;;;;;;;;;;;29.60;98.00;;;;;;5052668;28;19911;-68
2023/12/05 00:48:04;;;;;;;;;;;29.60;98.10;;;;;;4958102;28;19929;-69
2023/12/05 00:50:31;;;;;;;;;;;29.80;97.80;;;;;;4961816;28;19921;-70
2023/12/05 00:52:58;;;;;;;;;;;29.90;97.80;;;;;;4970756;28;20024;-67
2023/12/05 00:55:24;;;;;;;;;;;29.90;97.30;;;;;;4970569;28;19976;-68
2023/12/05 00:57:51;;;;;;;;;;;29.80;97.20;;;;;;4967625;28;19933;-68
2023/12/05 01:00:21;;;;;;;;;;;29.70;97.40;;;;;;4966770;28;20305;-69
2023/12/05 01:02:48;;;;;;;;;;;29.80;97.40;;;;;;4970683;28;19958;-70
2023/12/05 01:05:15;;;;;;;;;;;29.90;97.30;;;;;;4969440;28;20382;-69
2023/12/05 01:07:41;;;;;;;;;;;30.10;97.10;;;;;;4968497;28;19910;-69
2023/12/05 01:10:08;;;;;;;;;;;30.20;97.00;;;;;;4965648;28;19969;-69
2023/12/05 01:12:34;;;;;;;;;;;30.40;97.40;;;;;;4961285;28;20014;-68
2023/12/05 01:15:01;;;;;;;;;;;30.60;96.70;;;;;;4965077;28;19917;-70
2023/12/05 01:17:28;;;;;;;;;;;30.70;96.70;;;;;;4970542;28;20402;-69
2023/12/05 01:19:55;;;;;;;;;;;30.80;96.40;;;;;;4968368;28;19914;-69
2023/12/05 01:22:21;;;;;;;;;;;30.90;96.50;;;;;;4968533;28;20367;-70
2023/12/05 01:24:54;;;;;;;;;;;31.00;96.70;;;;;;4969793;28;19914;-69
2023/12/05 01:27:21;;;;;;;;;;;31.20;97.30;;;;;;4970422;28;19910;-69
2023/12/05 01:29:48;;;;;;;;;;;31.30;96.40;;;;;;4969425;28;20013;-69
2023/12/05 01:32:15;;;;;;;;;;;31.30;96.60;;;;;;4958262;28;19921;-70
2023/12/05 01:34:41;;;;;;;;;;;31.60;96.30;;;;;;4970014;28;19917;-70
2023/12/05 01:37:08;;;;;;;;;;;31.60;96.60;;;;;;4962858;28;20433;-71
2023/12/05 01:39:34;;;;;;;;;;;31.70;96.20;;;;;;4958911;28;19918;-70
2023/12/05 01:42:01;;;;;;;;;;;31.90;96.30;;;;;;4960523;28;20524;-69
2023/12/05 01:44:28;;;;;;;;;;;32.10;95.90;;;;;;4961248;28;19914;-71
2023/12/05 01:46:54;;;;;;;;;;;32.00;96.00;;;;;;4966069;28;20399;-70
2023/12/05 01:49:21;;;;;;;;;;;32.20;95.50;;;;;;4968072;28;19914;-69
2023/12/05 01:51:48;;;;;;;;;;;32.10;95.10;;;;;;4969817;28;20024;-70
2023/12/05 01:54:15;;;;;;;;;;;32.00;95.20;;;;;;4970178;28;20435;-70
2023/12/05 01:56:42;;;;;;;;;;;31.90;95.10;;;;;;4963419;28;20375;-71
2023/12/05 01:59:08;;;;;;;;;;;31.90;95.00;;;;;;4960149;28;19918;-71
2023/12/05 02:01:36;;;;;;;;;;;32.00;94.90;;;;;;4973473;28;19914;-70
2023/12/05 02:04:03;;;;;;;;;;;32.00;95.20;;;;;;4969632;28;20371;-72
2023/12/05 02:06:29;;;;;;;;;;;32.20;94.90;;;;;;4962816;28;20000;-72
2023/12/05 02:08:58;;;;;;;;;;;32.30;95.10;;;;;;4951225;28;19914;-71
2023/12/05 02:11:24;;;;;;;;;;;32.40;94.50;;;;;;4951110;28;19957;-71
2023/12/05 02:13:51;;;;;;;;;;;32.50;94.70;;;;;;4954137;28;19914;-72
2023/12/05 02:16:18;;;;;;;;;;;32.50;94.30;;;;;;4966495;28;20314;-71
2023/12/05 02:18:50;;;;;;;;;;;32.50;94.00;;;;;;4968950;28;19954;-71
2023/12/05 02:21:20;;;;;;;;;;;32.40;94.20;;;;;;4967677;28;20363;-71
2023/12/05 02:24:06;;;;;;;;;;;32.40;94.20;;;;;;4968509;28;19914;-72
2023/12/05 02:26:35;;;;;;;;;;;32.40;94.30;;;;;;4968091;28;19910;-71
2023/12/05 02:29:02;;;;;;;;;;;32.40;94.30;;;;;;4968589;28;20363;-73
2023/12/05 02:31:29;;;;;;;;;;;32.50;94.10;;;;;;4968672;28;19993;-71
2023/12/05 02:33:55;;;;;;;;;;;32.70;94.40;;;;;;4969133;28;19910;-71
2023/12/05 02:36:27;;;;;;;;;;;32.80;94.00;;;;;;4971720;28;19944;-71
2023/12/05 02:38:54;;;;;;;;;;;32.90;93.70;;;;;;4973161;28;19915;-71
2023/12/05 02:41:22;;;;;;;;;;;32.90;93.50;;;;;;4973398;28;19918;-70
2023/12/05 02:43:56;;;;;;;;;;;33.00;93.40;;;;;;4973215;28;19910;-71
2023/12/05 02:46:23;;;;;;;;;;;33.20;93.30;;;;;;4972570;28;19956;-72
2023/12/05 02:48:50;;;;;;;;;;;33.60;93.30;;;;;;4972985;28;20385;-70
2023/12/05 02:51:17;;;;;;;;;;;34.10;93.10;;;;;;4973115;28;20359;-71
2023/12/05 02:53:43;;;;;;;;;;;34.30;91.50;;;;;;4972982;28;20355;-70
2023/12/05 02:56:10;;;;;;;;;;;34.70;92.00;;;;;;4972290;28;19934;-70
2023/12/05 02:58:37;;;;;;;;;;;35.10;91.20;;;;;;4972561;28;19918;-70
2023/12/05 03:01:03;;;;;;;;;;;35.90;90.50;;;;;;4972857;28;19911;-69
2023/12/05 03:03:30;;;;;;;;;;;36.50;89.50;;;;;;4972799;28;19918;-70
2023/12/05 03:05:57;;;;;;;;;;;36.20;87.50;;;;;;4972756;28;19911;-71
2023/12/05 03:08:23;;;;;;;;;;;36.50;87.20;;;;;;4973624;28;19914;-71
2023/12/05 03:10:50;;;;;;;;;;;37.30;85.60;;;;;;4973466;28;19945;-71
2023/12/05 03:13:16;;;;;;;;;;;37.30;84.60;;;;;;4972780;28;19921;-70
2023/12/05 03:15:43;;;;;;;;;;;37.60;83.70;;;;;;4965052;28;20363;-72
2023/12/05 03:18:10;;;;;;;;;;;38.20;82.30;;;;;;4971935;28;19922;-71
2023/12/05 03:20:36;;;;;;;;;;;38.80;81.60;;;;;;4971843;28;19925;-70
2023/12/05 03:23:03;;;;;;;;;;;39.60;79.60;;;;;;4972190;28;20354;-72
2023/12/05 03:25:30;;;;;;;;;;;40.20;77.60;;;;;;4971830;28;19921;-71
2023/12/05 03:27:56;;;;;;;;;;;40.20;77.00;;;;;;4972782;28;19911;-72
2023/12/05 03:30:23;;;;;;;;;;;40.20;75.80;;;;;;4963427;28;19918;-70
2023/12/05 03:32:49;;;;;;;;;;;40.20;75.20;;;;;;4971228;28;19914;-68
2023/12/05 03:35:16;;;;;;;;;;;40.50;74.60;;;;;;4967231;28;20001;-69
2023/12/05 03:37:43;;;;;;;;;;;40.60;73.70;;;;;;4972038;28;19918;-71
2023/12/05 03:40:09;;;;;;;;;;;40.30;74.00;;;;;;4963336;28;19957;-71
2023/12/05 03:42:36;;;;;;;;;;;40.50;74.10;;;;;;4970698;28;19914;-70
2023/12/05 03:45:03;;;;;;;;;;;40.50;72.60;;;;;;4960866;28;20268;-70
2023/12/05 03:47:29;;;;;;;;;;;38.20;74.60;;;;;;5027457;28;19912;-70
2023/12/05 03:49:56;;;;;;;;;;;38.90;75.00;;;;;;5025950;28;19918;-71
2023/12/05 03:52:23;;;;;;;;;;;38.70;74.10;;;;;;4995190;28;19908;-72
2023/12/05 03:54:49;;;;;;;;;;;38.10;76.00;;;;;;4970643;28;19956;-71
2023/12/05 03:57:16;;;;;;;;;;;38.10;74.80;;;;;;4967751;28;19972;-70
2023/12/05 03:59:44;;;;;;;;;;;37.50;75.70;;;;;;4963346;28;20379;-69
2023/12/05 04:02:11;;;;;;;;;;;37.20;76.40;;;;;;4953945;28;19925;-73
2023/12/05 04:04:38;;;;;;;;;;;38.10;76.10;;;;;;4970713;28;20009;-71
2023/12/05 04:07:04;;;;;;;;;;;38.20;75.30;;;;;;4968136;28;19923;-73
2023/12/05 04:09:31;;;;;;;;;;;38.60;75.40;;;;;;4970881;28;19918;-70
2023/12/05 04:11:58;;;;;;;;;;;39.10;74.10;;;;;;4973581;28;20044;-72
2023/12/05 04:14:25;;;;;;;;;;;38.70;74.10;;;;;;4973300;28;20433;-72
2023/12/05 04:16:51;;;;;;;;;;;38.20;74.70;;;;;;4972715;28;20011;-72
2023/12/05 04:19:18;;;;;;;;;;;38.00;76.00;;;;;;4971217;28;19910;-70
2023/12/05 04:21:45;;;;;;;;;;;38.50;75.80;;;;;;4970848;28;19968;-72
2023/12/05 04:24:11;;;;;;;;;;;39.10;75.30;;;;;;4966705;28;20009;-72
2023/12/05 04:26:38;;;;;;;;;;;39.20;74.60;;;;;;4966970;28;19920;-73
2023/12/05 04:29:04;;;;;;;;;;;39.20;74.50;;;;;;4965776;28;19918;-72
2023/12/05 04:31:31;;;;;;;;;;;38.80;73.00;;;;;;4971814;28;19918;-72
2023/12/05 04:33:58;;;;;;;;;;;38.80;73.70;;;;;;4970695;28;19923;-73
2023/12/05 04:36:24;;;;;;;;;;;38.50;73.50;;;;;;4969103;28;19921;-72
2023/12/05 04:38:51;;;;;;;;;;;37.20;75.90;;;;;;5009199;28;20007;-71
2023/12/05 04:41:17;;;;;;;;;;;36.80;76.10;;;;;;4968876;28;19919;-71
2023/12/05 04:43:44;;;;;;;;;;;37.10;76.40;;;;;;4970014;28;19914;-71
2023/12/05 04:46:11;;;;;;;;;;;37.90;76.50;;;;;;4970370;28;19997;-71
2023/12/05 04:48:37;;;;;;;;;;;38.10;75.10;;;;;;4970531;28;20362;-71
2023/12/05 04:51:04;;;;;;;;;;;37.90;74.50;;;;;;4970561;28;19968;-71
2023/12/05 04:53:31;;;;;;;;;;;37.40;75.60;;;;;;4970491;28;19906;-72
2023/12/05 04:55:57;;;;;;;;;;;36.40;76.60;;;;;;4969494;28;19937;-72
2023/12/05 04:58:24;;;;;;;;;;;36.50;76.20;;;;;;4967497;28;19933;-71
2023/12/05 05:00:50;;;;;;;;;;;36.80;77.40;;;;;;4969796;28;19914;-71
2023/12/05 05:03:17;;;;;;;;;;;37.50;75.10;;;;;;4967705;28;19975;-71
2023/12/05 05:05:44;;;;;;;;;;;37.90;75.90;;;;;;5005503;28;19925;-70
2023/12/05 05:08:10;;;;;;;;;;;38.90;74.20;;;;;;4970309;28;19910;-71
2023/12/05 05:10:37;;;;;;;;;;;39.50;73.10;;;;;;4995990;28;19939;-74
2023/12/05 05:13:04;;;;;;;;;;;39.70;72.40;;;;;;5014122;28;19914;-71
2023/12/05 05:15:30;;;;;;;;;;;38.90;73.10;;;;;;4969632;28;19914;-71
2023/12/05 05:17:57;;;;;;;;;;;39.30;73.00;;;;;;4969708;28;19926;-72
2023/12/05 05:20:24;;;;;;;;;;;39.90;71.90;;;;;;4969587;28;19967;-72
2023/12/05 05:22:51;;;;;;;;;;;40.60;71.10;;;;;;4969785;28;19965;-71
2023/12/05 05:25:18;;;;;;;;;;;41.20;69.70;;;;;;4967277;28;19953;-71
2023/12/05 05:27:45;;;;;;;;;;;40.50;70.30;;;;;;5014898;28;19908;-71
2023/12/05 05:30:12;;;;;;;;;;;40.20;71.20;;;;;;5012331;28;19921;-71
2023/12/05 05:32:38;;;;;;;;;;;40.00;70.50;;;;;;4960656;28;19918;-74
2023/12/05 05:35:05;;;;;;;;;;;38.80;72.00;;;;;;4956380;28;19928;-74
2023/12/05 05:37:32;;;;;;;;;;;38.50;74.30;;;;;;4968673;28;19918;-71
2023/12/05 05:39:58;;;;;;;;;;;38.20;73.30;;;;;;4968577;28;19910;-71
2023/12/05 05:42:25;;;;;;;;;;;37.90;73.70;;;;;;4969583;28;19914;-73
2023/12/05 05:44:52;;;;;;;;;;;37.90;74.00;;;;;;4969976;28;19957;-71
2023/12/05 05:47:18;;;;;;;;;;;37.80;73.50;;;;;;4969305;28;20422;-71
2023/12/05 05:49:46;;;;;;;;;;;37.30;73.60;;;;;;4968774;28;19961;-72
2023/12/05 05:52:13;;;;;;;;;;;37.20;74.20;;;;;;4961704;28;20383;-71
2023/12/05 05:54:39;;;;;;;;;;;36.80;74.90;;;;;;4950429;28;19929;-71
2023/12/05 05:57:06;;;;;;;;;;;36.30;75.50;;;;;;4968502;28;19972;-71
2023/12/05 05:59:32;;;;;;;;;;;36.20;77.10;;;;;;4968923;28;19911;-71
2023/12/05 06:01:59;;;;;;;;;;;36.00;76.10;;;;;;4967809;28;19915;-71
2023/12/05 06:04:26;;;;;;;;;;;35.60;77.10;;;;;;4969559;28;19914;-69
2023/12/05 06:06:52;;;;;;;;;;;35.20;77.30;;;;;;4969477;28;19917;-70
2023/12/05 06:09:19;;;;;;;;;;;34.80;77.70;;;;;;4969430;28;19957;-71
2023/12/05 06:11:46;;;;;;;;;;;34.60;79.00;;;;;;4968286;28;19959;-72
2023/12/05 06:14:13;;;;;;;;;;;34.30;79.50;;;;;;4962941;28;19914;-72
2023/12/05 06:16:39;;;;;;;;;;;34.30;79.10;;;;;;4968990;28;19926;-72
2023/12/05 06:19:06;;;;;;;;;;;34.10;79.40;;;;;;4972417;28;20291;-72
2023/12/05 06:21:32;;;;;;;;;;;33.90;79.80;;;;;;4960247;28;20401;-72
2023/12/05 06:23:59;;;;;;;;;;;33.40;81.10;;;;;;4960449;28;20005;-72
2023/12/05 06:26:26;;;;;;;;;;;33.20;81.90;;;;;;4968480;28;19910;-72
2023/12/05 06:28:52;;;;;;;;;;;33.30;81.70;;;;;;4959647;28;19937;-70
2023/12/05 06:31:19;;;;;;;;;;;33.30;82.40;;;;;;4958728;28;20109;-72
2023/12/05 06:33:46;;;;;;;;;;;33.20;81.80;;;;;;4958350;28;20564;-69
2023/12/05 06:36:14;;;;;;;;;;;33.00;81.50;;;;;;4972252;28;19920;-72
2023/12/05 06:38:40;;;;;;;;;;;33.00;81.70;;;;;;4972839;28;19930;-71
2023/12/05 06:41:08;;;;;;;;;;;33.00;82.00;;;;;;4972449;28;19993;-72
2023/12/05 06:43:34;;;;;;;;;;;33.00;83.00;;;;;;4976791;28;19928;-69
2023/12/05 06:46:01;;;;;;;;;;;33.00;82.30;;;;;;5013138;28;20008;-71
2023/12/05 06:48:28;;;;;;;;;;;33.00;83.00;;;;;;4967773;28;20367;-69
2023/12/05 06:50:54;;;;;;;;;;;33.00;82.00;;;;;;4971887;28;19910;-71
2023/12/05 06:53:21;;;;;;;;;;;32.80;83.20;;;;;;4972348;28;19921;-72
2023/12/05 06:55:48;;;;;;;;;;;32.70;84.00;;;;;;4967054;28;20279;-71
2023/12/05 06:58:15;;;;;;;;;;;32.60;83.10;;;;;;4961066;28;19922;-71
2023/12/05 07:00:42;;;;;;;;;;;32.40;83.50;;;;;;4982120;28;19914;-70
2023/12/05 07:03:09;;;;;;;;;;;32.30;83.80;;;;;;5014718;28;20585;-71
2023/12/05 07:05:35;;;;;;;;;;;32.20;84.30;;;;;;4958354;28;19911;-71
2023/12/05 07:08:02;;;;;;;;;;;31.70;84.80;;;;;;4972301;28;19921;-71
2023/12/05 07:10:29;;;;;;;;;;;31.80;84.70;;;;;;4968873;28;20386;-72
2023/12/05 07:12:56;;;;;;;;;;;31.60;84.80;;;;;;4953227;28;19910;-72
2023/12/05 07:15:22;;;;;;;;;;;31.50;86.00;;;;;;4968994;28;20320;-73
2023/12/05 07:17:49;;;;;;;;;;;31.50;86.40;;;;;;4972257;28;19965;-73
2023/12/05 07:20:16;;;;;;;;;;;31.50;85.60;;;;;;4970166;28;20024;-73
2023/12/05 07:22:43;;;;;;;;;;;31.20;85.90;;;;;;4952113;28;19919;-71
2023/12/05 07:25:09;;;;;;;;;;;30.70;86.70;;;;;;4966755;28;19911;-72
2023/12/05 07:27:36;;;;;;;;;;;30.50;87.20;;;;;;4972863;28;19914;-71
2023/12/05 07:30:03;;;;;;;;;;;30.20;88.30;;;;;;4972164;28;19933;-72
2023/12/05 07:32:30;;;;;;;;;;;30.10;89.10;;;;;;4953345;28;20438;-72
2023/12/05 07:34:57;;;;;;;;;;;30.00;88.80;;;;;;4964505;28;19932;-72
2023/12/05 07:37:24;;;;;;;;;;;29.80;89.60;;;;;;4972453;28;19929;-71
2023/12/05 07:39:50;;;;;;;;;;;29.70;89.80;;;;;;4962989;28;19949;-72
2023/12/05 07:42:17;;;;;;;;;;;29.60;90.10;;;;;;4952872;28;20045;-71
2023/12/05 07:44:44;;;;;;;;;;;29.60;90.30;;;;;;4962053;28;19962;-72
2023/12/05 07:47:11;;;;;;;;;;;29.50;90.40;;;;;;4948126;28;19950;-72
2023/12/05 07:49:38;;;;;;;;;;;29.50;90.60;;;;;;4971008;28;19965;-72
2023/12/05 07:52:06;;;;;;;;;;;29.40;90.70;;;;;;4955571;28;19915;-73
2023/12/05 07:54:33;;;;;;;;;;;29.20;91.00;;;;;;4961524;28;20265;-72
2023/12/05 07:56:59;;;;;;;;;;;29.20;91.10;;;;;;4974558;28;19967;-73
2023/12/05 07:59:26;;;;;;;;;;;29.20;91.20;;;;;;4965223;28;19948;-71
2023/12/05 08:01:53;;;;;;;;;;;29.20;91.30;;;;;;4973667;28;19910;-73
2023/12/05 08:04:19;;;;;;;;;;;29.10;91.30;;;;;;4962059;28;19915;-72
2023/12/05 08:06:46;;;;;;;;;;;29.00;91.60;;;;;;4963660;28;19947;-71
2023/12/05 08:09:16;;;;;;;;;;;29.00;91.70;;;;;;4964443;28;19910;-72
2023/12/05 08:11:42;;;;;;;;;;;29.00;91.90;;;;;;4973985;28;19918;-72
2023/12/05 08:14:09;;;;;;;;;;;28.90;92.00;;;;;;4963207;28;20294;-71
2023/12/05 08:16:37;;;;;;;;;;;28.90;92.20;;;;;;4962904;28;20363;-73
2023/12/05 08:19:03;;;;;;;;;;;28.70;92.20;;;;;;4962492;28;19914;-71
2023/12/05 08:21:30;;;;;;;;;;;28.60;92.50;;;;;;4976812;28;20746;-72
2023/12/05 08:23:57;;;;;;;;;;;28.50;92.70;;;;;;4962430;28;19963;-74
2023/12/05 08:26:24;;;;;;;;;;;28.40;92.80;;;;;;4962323;28;20414;-71
2023/12/05 08:28:51;;;;;;;;;;;28.30;92.90;;;;;;4963666;28;20355;-71
2023/12/05 08:31:17;;;;;;;;;;;28.20;93.10;;;;;;4963275;28;19919;-71
2023/12/05 08:33:44;;;;;;;;;;;28.10;93.30;;;;;;4961816;28;19914;-72
2023/12/05 08:36:11;;;;;;;;;;;28.00;93.40;;;;;;4962980;28;19918;-72
2023/12/05 08:38:37;;;;;;;;;;;28.00;93.60;;;;;;4962575;28;20423;-72
2023/12/05 08:41:04;;;;;;;;;;;27.90;93.70;;;;;;4964396;28;20416;-71
2023/12/05 08:43:31;;;;;;;;;;;27.80;93.80;;;;;;4964028;28;20030;-70
2023/12/05 08:45:58;;;;;;;;;;;27.70;94.00;;;;;;4964031;28;19918;-71
2023/12/05 08:48:25;;;;;;;;;;;27.70;94.10;;;;;;4963044;28;19910;-71
2023/12/05 08:50:52;;;;;;;;;;;27.60;94.20;;;;;;4977394;28;19923;-70
2023/12/05 08:53:18;;;;;;;;;;;27.50;94.30;;;;;;4961577;28;19956;-72
2023/12/05 08:55:46;;;;;;;;;;;27.50;94.50;;;;;;4962210;28;19915;-72
2023/12/05 08:58:13;;;;;;;;;;;27.40;94.80;;;;;;4962037;28;19972;-69
2023/12/05 09:00:40;;;;;;;;;;;27.30;95.00;;;;;;4974909;28;20016;-72
2023/12/05 09:03:06;;;;;;;;;;;27.20;95.10;;;;;;4964050;28;19921;-73
2023/12/05 09:05:33;;;;;;;;;;;27.10;95.50;;;;;;4961964;28;19915;-71
2023/12/05 09:08:00;;;;;;;;;;;27.10;95.40;;;;;;4961915;28;20252;-72
2023/12/05 09:10:27;;;;;;;;;;;27.00;95.80;;;;;;4963549;28;19918;-70
2023/12/05 09:12:54;;;;;;;;;;;27.00;95.90;;;;;;4972708;28;19912;-71
2023/12/05 09:15:20;;;;;;;;;;;26.80;96.10;;;;;;4961860;28;20378;-74
2023/12/05 09:17:47;;;;;;;;;;;26.80;96.20;;;;;;4961955;28;19930;-72
2023/12/05 09:20:14;;;;;;;;;;;26.80;96.30;;;;;;4963935;28;19914;-71
2023/12/05 09:22:41;;;;;;;;;;;26.80;96.30;;;;;;4977982;28;19937;-72
2023/12/05 09:25:08;;;;;;;;;;;26.80;96.50;;;;;;4960962;28;20436;-72
2023/12/05 09:27:35;;;;;;;;;;;26.70;96.60;;;;;;4962193;28;19918;-74
2023/12/05 09:30:02;;;;;;;;;;;26.70;96.80;;;;;;4957838;28;19949;-71
2023/12/05 09:32:28;;;;;;;;;;;26.70;96.80;;;;;;4975422;28;19941;-72
2023/12/05 09:34:56;;;;;;;;;;;26.60;96.70;;;;;;4960576;28;19910;-69
2023/12/05 09:37:23;;;;;;;;;;;26.70;96.90;;;;;;4962066;28;20379;-68
2023/12/05 09:39:50;;;;;;;;;;;26.60;97.00;;;;;;4967820;28;19914;-72
2023/12/05 09:42:19;;;;;;;;;;;26.60;97.00;;;;;;4962527;28;19993;-72
2023/12/05 09:44:47;;;;;;;;;;;26.60;97.20;;;;;;4955647;28;19928;-69
2023/12/05 09:47:20;;;;;;;;;;;26.70;97.30;;;;;;4970476;28;20327;-70
2023/12/05 09:49:48;;;;;;;;;;;26.60;97.30;;;;;;4969613;28;19921;-69
2023/12/05 09:52:15;;;;;;;;;;;26.60;97.60;;;;;;4958874;28;20371;-71
2023/12/05 09:54:44;;;;;;;;;;;26.50;97.80;;;;;;4969710;28;19911;-70
2023/12/05 09:57:14;;;;;;;;;;;26.50;97.90;;;;;;4970202;28;19922;-71
2023/12/05 09:59:41;;;;;;;;;;;26.40;98.20;;;;;;4969546;28;19914;-70
2023/12/05 10:02:08;;;;;;;;;;;26.40;98.30;;;;;;4970690;28;19983;-71
2023/12/05 10:04:44;;;;;;;;;;;26.40;98.50;;;;;;4970219;28;20393;-70
2023/12/05 10:07:12;;;;;;;;;;;26.50;98.70;;;;;;4970119;28;20005;-72
2023/12/05 10:09:41;;;;;;;;;;;26.60;98.70;;;;;;4969158;28;19910;-71
2023/12/05 10:12:08;;;;;;;;;;;26.60;98.70;;;;;;4963140;28;19914;-71
2023/12/05 10:14:37;;;;;;;;;;;26.60;98.80;;;;;;4969968;28;20314;-70
2023/12/05 10:17:04;;;;;;;;;;;26.50;98.80;;;;;;5042610;28;19923;-72
2023/12/05 10:19:31;;;;;;;;;;;26.50;99.00;;;;;;4969217;28;20450;-70
2023/12/05 10:21:58;;;;;;;;;;;26.50;99.20;;;;;;4968260;28;19957;-72
2023/12/05 10:24:25;;;;;;;;;;;26.50;99.30;;;;;;4969608;28;19910;-71
2023/12/05 10:26:53;;;;;;;;;;;26.50;99.30;;;;;;4969682;28;19914;-72
2023/12/05 10:29:20;;;;;;;;;;;26.50;99.40;;;;;;4956597;28;19921;-72
2023/12/05 10:31:47;;;;;;;;;;;26.60;99.50;;;;;;4957791;28;19972;-70
2023/12/05 10:34:14;;;;;;;;;;;26.60;99.40;;;;;;4969126;28;19921;-69
2023/12/05 10:36:40;;;;;;;;;;;26.60;99.50;;;;;;4969865;28;19940;-70
2023/12/05 10:39:07;;;;;;;;;;;26.60;99.60;;;;;;4968859;28;19922;-70
2023/12/05 10:41:34;;;;;;;;;;;26.60;99.70;;;;;;4960498;28;19914;-70
2023/12/05 10:44:02;;;;;;;;;;;26.50;99.90;;;;;;4966776;28;20403;-70
2023/12/05 10:46:29;;;;;;;;;;;26.40;99.90;;;;;;4969650;28;19945;-70
2023/12/05 10:48:56;;;;;;;;;;;26.40;99.90;;;;;;4969757;28;19960;-70
2023/12/05 10:51:26;;;;;;;;;;;26.40;99.90;;;;;;4962604;28;20355;-70
2023/12/05 10:53:55;;;;;;;;;;;26.40;99.90;;;;;;4965405;28;19922;-71
2023/12/05 10:56:23;;;;;;;;;;;26.40;99.90;;;;;;4972403;28;19921;-71
2023/12/05 10:58:52;;;;;;;;;;;26.30;99.90;;;;;;4972696;28;19922;-69
2023/12/05 11:01:21;;;;;;;;;;;26.40;99.90;;;;;;4966312;28;20356;-69
2023/12/05 11:03:48;;;;;;;;;;;26.30;99.90;;;;;;4966611;28;20025;-71
2023/12/05 11:06:15;;;;;;;;;;;26.30;99.90;;;;;;4972818;28;19918;-71
2023/12/05 11:08:42;;;;;;;;;;;26.30;99.90;;;;;;4969952;28;20290;-71
2023/12/05 11:11:10;;;;;;;;;;;26.40;99.90;;;;;;4968735;28;19925;-71
2023/12/05 11:13:38;;;;;;;;;;;26.30;99.90;;;;;;4964696;28;20287;-69
2023/12/05 11:16:10;;;;;;;;;;;26.30;99.90;;;;;;4972365;28;19915;-70
2023/12/05 11:18:42;;;;;;;;;;;26.30;99.90;;;;;;4971028;28;19961;-70
2023/12/05 11:21:26;;;;;;;;;;;26.20;99.90;;;;;;4967533;28;19926;-69
2023/12/05 11:23:53;;;;;;;;;;;26.20;99.90;;;;;;4966420;28;19914;-70
2023/12/05 11:26:29;;;;;;;;;;;26.20;99.90;;;;;;4972706;28;19914;-70
2023/12/05 11:28:59;;;;;;;;;;;26.20;99.90;;;;;;4972010;28;19957;-71
2023/12/05 11:31:31;;;;;;;;;;;26.20;99.90;;;;;;4966701;28;19969;-69
2023/12/05 11:34:16;;;;;;;;;;;26.20;99.90;;;;;;4966226;28;19914;-70
2023/12/05 11:37:01;;;;;;;;;;;26.30;99.90;;;;;;4968178;28;19960;-69
2023/12/05 11:39:29;;;;;;;;;;;26.30;99.90;;;;;;4992474;28;19971;-70
2023/12/05 11:42:10;;;;;;;;;;;26.40;99.90;;;;;;4962729;28;20311;-70
2023/12/05 11:44:38;;;;;;;;;;;26.40;99.90;;;;;;4970927;28;19967;-69
2023/12/05 11:47:24;;;;;;;;;;;26.40;99.90;;;;;;4971919;28;19921;-68
2023/12/05 11:49:55;;;;;;;;;;;26.50;99.90;;;;;;4959948;28;20047;-68
2023/12/05 11:52:23;;;;;;;;;;;26.60;99.90;;;;;;4964769;28;19922;-72
2023/12/05 11:54:52;;;;;;;;;;;26.50;99.90;;;;;;4972020;28;19911;-72
2023/12/05 11:57:24;;;;;;;;;;;26.50;99.90;;;;;;4966855;28;20013;-68
2023/12/05 11:59:56;;;;;;;;;;;26.40;99.90;;;;;;4971209;28;20270;-71
2023/12/05 12:02:31;;;;;;;;;;;26.50;99.90;;;;;;4969169;28;19945;-70
2023/12/05 12:05:05;;;;;;;;;;;26.40;99.90;;;;;;4972649;28;19910;-70
2023/12/05 12:07:32;;;;;;;;;;;26.40;99.90;;;;;;4971446;28;20344;-71
2023/12/05 12:09:59;;;;;;;;;;;26.30;99.90;;;;;;4959968;28;20249;-71
2023/12/05 12:12:26;;;;;;;;;;;26.30;99.90;;;;;;4968960;28;19914;-70
2023/12/05 12:14:53;;;;;;;;;;;26.30;99.90;;;;;;4972016;28;19917;-70
2023/12/05 12:17:20;;;;;;;;;;;26.30;99.90;;;;;;4972278;28;20385;-71
2023/12/05 12:19:47;;;;;;;;;;;26.30;99.90;;;;;;4971970;28;19918;-69
2023/12/05 12:22:13;;;;;;;;;;;26.20;99.90;;;;;;4957535;28;19914;-71
2023/12/05 12:24:40;;;;;;;;;;;26.10;99.90;;;;;;4953072;28;20009;-69
2023/12/05 12:27:07;;;;;;;;;;;26.10;99.90;;;;;;4952920;28;19917;-70
2023/12/05 12:29:35;;;;;;;;;;;26.00;99.90;;;;;;4962322;28;19919;-72
2023/12/05 12:32:06;;;;;;;;;;;26.00;99.90;;;;;;4965319;28;19921;-71
2023/12/05 12:34:33;;;;;;;;;;;26.00;99.90;;;;;;4972285;28;20383;-70
2023/12/05 12:36:59;;;;;;;;;;;26.10;99.90;;;;;;4972502;28;20294;-70
2023/12/05 12:39:26;;;;;;;;;;;26.00;99.90;;;;;;4972128;28;19915;-71
2023/12/05 12:41:54;;;;;;;;;;;26.10;99.90;;;;;;4970281;28;19915;-71
2023/12/05 12:44:21;;;;;;;;;;;26.10;99.90;;;;;;4971866;28;19914;-71
2023/12/05 12:46:48;;;;;;;;;;;26.20;99.90;;;;;;4971857;28;19910;-69
2023/12/05 12:49:14;;;;;;;;;;;26.20;99.90;;;;;;4971934;28;19936;-69
2023/12/05 12:51:41;;;;;;;;;;;26.10;99.90;;;;;;4962269;28;19918;-69
2023/12/05 12:54:08;;;;;;;;;;;26.10;99.90;;;;;;4952561;28;19910;-70
2023/12/05 12:56:36;;;;;;;;;;;26.10;99.90;;;;;;4954842;28;20011;-70
2023/12/05 12:59:03;;;;;;;;;;;26.10;99.90;;;;;;4971802;28;19918;-71
2023/12/05 13:01:31;;;;;;;;;;;26.00;99.90;;;;;;4963450;28;19918;-70
2023/12/05 13:03:57;;;;;;;;;;;26.00;99.90;;;;;;4970136;28;19914;-71
2023/12/05 13:06:24;;;;;;;;;;;25.90;99.90;;;;;;4971667;28;20362;-70
2023/12/05 13:08:51;;;;;;;;;;;25.80;99.90;;;;;;4971651;28;20005;-71
2023/12/05 13:11:17;;;;;;;;;;;25.80;99.90;;;;;;4965832;28;20363;-69
2023/12/05 13:13:44;;;;;;;;;;;25.80;99.90;;;;;;4952358;28;19914;-70
2023/12/05 13:16:11;;;;;;;;;;;25.70;99.90;;;;;;4952013;28;20273;-70
2023/12/05 13:18:47;;;;;;;;;;;25.60;99.90;;;;;;4951672;28;19918;-69
2023/12/05 13:21:13;;;;;;;;;;;25.60;99.90;;;;;;4956413;28;19922;-72
2023/12/05 13:23:42;;;;;;;;;;;25.60;99.90;;;;;;4970843;28;19972;-68
2023/12/05 13:26:08;;;;;;;;;;;25.50;99.90;;;;;;4971026;28;19957;-70
2023/12/05 13:28:35;;;;;;;;;;;25.50;99.90;;;;;;4970308;28;19917;-71
2023/12/05 13:31:02;;;;;;;;;;;25.50;99.90;;;;;;4954614;28;20413;-70
2023/12/05 13:33:28;;;;;;;;;;;25.40;99.90;;;;;;4971066;28;19910;-70
2023/12/05 13:35:55;;;;;;;;;;;25.40;99.90;;;;;;4971125;28;19917;-70
2023/12/05 13:38:22;;;;;;;;;;;25.30;99.90;;;;;;4970940;28;19918;-69
2023/12/05 13:40:48;;;;;;;;;;;25.30;99.90;;;;;;4970095;28;19910;-70
2023/12/05 13:43:15;;;;;;;;;;;25.30;99.90;;;;;;4951691;28;19954;-69
2023/12/05 13:45:42;;;;;;;;;;;25.30;99.90;;;;;;4951795;28;20005;-71
2023/12/05 13:48:08;;;;;;;;;;;25.30;99.90;;;;;;4951893;28;19914;-69
2023/12/05 13:50:35;;;;;;;;;;;25.30;99.90;;;;;;4950460;28;19910;-70
2023/12/05 13:53:02;;;;;;;;;;;25.30;99.90;;;;;;4969621;28;19921;-70
2023/12/05 13:55:29;;;;;;;;;;;25.20;99.90;;;;;;4970944;28;19910;-70
2023/12/05 13:57:56;;;;;;;;;;;25.20;99.90;;;;;;4958519;28;20283;-69
2023/12/05 14:00:23;;;;;;;;;;;25.20;99.90;;;;;;4951507;28;19932;-69
2023/12/05 14:02:50;;;;;;;;;;;25.20;99.90;;;;;;4967583;28;19914;-70
2023/12/05 14:05:16;;;;;;;;;;;25.20;99.90;;;;;;4970682;28;19911;-69
2023/12/05 14:07:43;;;;;;;;;;;25.10;99.90;;;;;;4970799;28;19910;-70
2023/12/05 14:10:10;;;;;;;;;;;25.10;99.90;;;;;;4971015;28;19918;-72
2023/12/05 14:12:36;;;;;;;;;;;25.10;99.90;;;;;;4956038;28;19929;-70
2023/12/05 14:15:03;;;;;;;;;;;25.10;99.90;;;;;;4968227;28;20005;-70
2023/12/05 14:17:30;;;;;;;;;;;25.10;99.90;;;;;;4970698;28;19918;-72